sensor_id;sensor_type;location;lat;lon;timestamp;P1;durP1;ratioP1;P2;durP2;ratioP2
54983;SDS011;40884;53.562;9.940;2022-10-31T00:00:22;22.57;;;15.33;;
54983;SDS011;40884;53.562;9.940;2022-10-31T00:01:23;21.00;;;15.77;;
54983;SDS011;40884;53.562;9.940;2022-10-31T00:02:24;21.67;;;14.63;;
54983;SDS011;40884;53.562;9.940;2022-10-31T00:03:24;19.90;;;14.53;;
54983;SDS011;40884;53.562;9.940;2022-10-31T00:04:24;20.27;;;15.27;;
54983;SDS011;40884;53.562;9.940;2022-10-31T00:05:24;21.43;;;14.80;;
54983;SDS011;40884;53.562;9.940;2022-10-31T00:06:26;20.33;;;14.73;;
54983;SDS011;40884;53.562;9.940;2022-10-31T00:07:26;24.07;;;15.07;;
54983;SDS011;40884;53.562;9.940;2022-10-31T00:08:27;22.33;;;15.90;;
54983;SDS011;40884;53.562;9.940;2022-10-31T00:09:27;21.17;;;12.87;;
54983;SDS011;40884;53.562;9.940;2022-10-31T00:10:27;17.60;;;14.37;;
54983;SDS011;40884;53.562;9.940;2022-10-31T00:11:27;20.93;;;15.30;;
54983;SDS011;40884;53.562;9.940;2022-10-31T00:12:27;19.30;;;14.77;;
54983;SDS011;40884;53.562;9.940;2022-10-31T00:13:27;19.70;;;14.03;;
54983;SDS011;40884;53.562;9.940;2022-10-31T00:14:27;19.53;;;14.63;;
54983;SDS011;40884;53.562;9.940;2022-10-31T00:15:28;17.67;;;13.93;;
54983;SDS011;40884;53.562;9.940;2022-10-31T00:16:28;20.73;;;14.07;;
54983;SDS011;40884;53.562;9.940;2022-10-31T00:17:28;18.47;;;12.90;;
54983;SDS011;40884;53.562;9.940;2022-10-31T00:18:29;21.93;;;15.23;;
54983;SDS011;40884;53.562;9.940;2022-10-31T00:19:29;20.53;;;15.60;;
54983;SDS011;40884;53.562;9.940;2022-10-31T00:20:29;21.43;;;15.57;;
54983;SDS011;40884;53.562;9.940;2022-10-31T00:21:30;22.67;;;15.10;;
54983;SDS011;40884;53.562;9.940;2022-10-31T00:22:30;25.47;;;16.60;;
54983;SDS011;40884;53.562;9.940;2022-10-31T00:23:30;18.63;;;13.50;;
54983;SDS011;40884;53.562;9.940;2022-10-31T00:24:30;18.87;;;14.13;;
54983;SDS011;40884;53.562;9.940;2022-10-31T00:25:33;20.90;;;15.53;;
54983;SDS011;40884;53.562;9.940;2022-10-31T00:26:33;26.30;;;15.60;;
54983;SDS011;40884;53.562;9.940;2022-10-31T00:27:34;22.80;;;15.07;;
54983;SDS011;40884;53.562;9.940;2022-10-31T00:28:34;20.47;;;13.77;;
54983;SDS011;40884;53.562;9.940;2022-10-31T00:29:34;24.17;;;15.60;;
54983;SDS011;40884;53.562;9.940;2022-10-31T00:30:34;18.83;;;14.90;;
54983;SDS011;40884;53.562;9.940;2022-10-31T00:31:34;20.00;;;14.00;;
54983;SDS011;40884;53.562;9.940;2022-10-31T00:32:34;17.50;;;13.93;;
54983;SDS011;40884;53.562;9.940;2022-10-31T00:33:35;18.63;;;14.37;;
54983;SDS011;40884;53.562;9.940;2022-10-31T00:34:35;20.40;;;15.67;;
54983;SDS011;40884;53.562;9.940;2022-10-31T00:35:35;22.07;;;15.23;;
54983;SDS011;40884;53.562;9.940;2022-10-31T00:36:35;19.17;;;12.97;;
54983;SDS011;40884;53.562;9.940;2022-10-31T00:37:36;21.43;;;14.87;;
54983;SDS011;40884;53.562;9.940;2022-10-31T00:38:36;16.77;;;12.00;;
54983;SDS011;40884;53.562;9.940;2022-10-31T00:39:36;25.43;;;15.90;;
54983;SDS011;40884;53.562;9.940;2022-10-31T00:40:36;19.80;;;13.50;;
54983;SDS011;40884;53.562;9.940;2022-10-31T00:41:36;16.80;;;13.13;;
54983;SDS011;40884;53.562;9.940;2022-10-31T00:42:36;21.13;;;15.00;;
54983;SDS011;40884;53.562;9.940;2022-10-31T00:43:36;21.77;;;15.93;;
54983;SDS011;40884;53.562;9.940;2022-10-31T00:44:36;18.63;;;13.87;;
54983;SDS011;40884;53.562;9.940;2022-10-31T00:45:37;22.17;;;15.27;;
54983;SDS011;40884;53.562;9.940;2022-10-31T00:46:37;24.67;;;15.93;;
54983;SDS011;40884;53.562;9.940;2022-10-31T00:47:37;22.60;;;15.97;;
54983;SDS011;40884;53.562;9.940;2022-10-31T00:48:37;19.83;;;15.57;;
54983;SDS011;40884;53.562;9.940;2022-10-31T00:49:37;24.13;;;16.10;;
54983;SDS011;40884;53.562;9.940;2022-10-31T00:50:38;21.07;;;16.13;;
54983;SDS011;40884;53.562;9.940;2022-10-31T00:51:38;20.40;;;15.67;;
54983;SDS011;40884;53.562;9.940;2022-10-31T00:52:38;23.70;;;15.50;;
54983;SDS011;40884;53.562;9.940;2022-10-31T00:53:38;23.40;;;16.10;;
54983;SDS011;40884;53.562;9.940;2022-10-31T00:54:38;22.97;;;15.57;;
54983;SDS011;40884;53.562;9.940;2022-10-31T00:55:39;21.73;;;15.73;;
54983;SDS011;40884;53.562;9.940;2022-10-31T00:56:39;25.33;;;16.70;;
54983;SDS011;40884;53.562;9.940;2022-10-31T00:57:39;22.60;;;16.33;;
54983;SDS011;40884;53.562;9.940;2022-10-31T00:58:39;18.53;;;14.90;;
54983;SDS011;40884;53.562;9.940;2022-10-31T00:59:40;20.57;;;15.60;;
54983;SDS011;40884;53.562;9.940;2022-10-31T01:00:40;22.37;;;15.43;;
54983;SDS011;40884;53.562;9.940;2022-10-31T01:01:41;21.93;;;15.10;;
54983;SDS011;40884;53.562;9.940;2022-10-31T01:02:41;18.53;;;14.03;;
54983;SDS011;40884;53.562;9.940;2022-10-31T01:03:41;19.90;;;13.97;;
54983;SDS011;40884;53.562;9.940;2022-10-31T01:04:45;21.97;;;15.80;;
54983;SDS011;40884;53.562;9.940;2022-10-31T01:05:45;19.70;;;14.87;;
54983;SDS011;40884;53.562;9.940;2022-10-31T01:06:45;20.67;;;16.50;;
54983;SDS011;40884;53.562;9.940;2022-10-31T01:07:45;21.33;;;14.60;;
54983;SDS011;40884;53.562;9.940;2022-10-31T01:08:46;25.03;;;15.37;;
54983;SDS011;40884;53.562;9.940;2022-10-31T01:09:46;21.50;;;15.87;;
54983;SDS011;40884;53.562;9.940;2022-10-31T01:10:46;23.20;;;15.77;;
54983;SDS011;40884;53.562;9.940;2022-10-31T01:11:57;20.20;;;16.73;;
54983;SDS011;40884;53.562;9.940;2022-10-31T01:12:58;22.17;;;16.10;;
54983;SDS011;40884;53.562;9.940;2022-10-31T01:13:58;28.47;;;16.17;;
54983;SDS011;40884;53.562;9.940;2022-10-31T01:14:58;20.57;;;15.13;;
54983;SDS011;40884;53.562;9.940;2022-10-31T01:15:58;21.00;;;15.20;;
54983;SDS011;40884;53.562;9.940;2022-10-31T01:16:59;23.27;;;16.03;;
54983;SDS011;40884;53.562;9.940;2022-10-31T01:17:59;19.83;;;15.73;;
54983;SDS011;40884;53.562;9.940;2022-10-31T01:18:59;24.27;;;15.40;;
54983;SDS011;40884;53.562;9.940;2022-10-31T01:20:01;24.07;;;19.10;;
54983;SDS011;40884;53.562;9.940;2022-10-31T01:21:06;17.23;;;13.93;;
54983;SDS011;40884;53.562;9.940;2022-10-31T01:22:06;16.63;;;13.20;;
54983;SDS011;40884;53.562;9.940;2022-10-31T01:23:06;19.20;;;14.43;;
54983;SDS011;40884;53.562;9.940;2022-10-31T01:24:07;22.67;;;15.93;;
54983;SDS011;40884;53.562;9.940;2022-10-31T01:25:11;21.10;;;18.10;;
54983;SDS011;40884;53.562;9.940;2022-10-31T01:26:21;24.27;;;17.37;;
54983;SDS011;40884;53.562;9.940;2022-10-31T01:27:21;22.13;;;16.70;;
54983;SDS011;40884;53.562;9.940;2022-10-31T01:28:22;23.23;;;17.47;;
54983;SDS011;40884;53.562;9.940;2022-10-31T01:29:22;25.27;;;16.73;;
54983;SDS011;40884;53.562;9.940;2022-10-31T01:30:23;22.70;;;16.70;;
54983;SDS011;40884;53.562;9.940;2022-10-31T01:31:24;23.70;;;17.27;;
54983;SDS011;40884;53.562;9.940;2022-10-31T01:32:26;23.43;;;17.80;;
54983;SDS011;40884;53.562;9.940;2022-10-31T01:33:26;20.63;;;15.63;;
54983;SDS011;40884;53.562;9.940;2022-10-31T01:34:26;23.27;;;16.67;;
54983;SDS011;40884;53.562;9.940;2022-10-31T01:35:26;22.63;;;15.07;;
54983;SDS011;40884;53.562;9.940;2022-10-31T01:36:31;22.60;;;17.07;;
54983;SDS011;40884;53.562;9.940;2022-10-31T01:37:32;23.30;;;18.00;;
54983;SDS011;40884;53.562;9.940;2022-10-31T01:38:32;22.67;;;17.50;;
54983;SDS011;40884;53.562;9.940;2022-10-31T01:39:32;24.03;;;15.80;;
54983;SDS011;40884;53.562;9.940;2022-10-31T01:40:32;22.93;;;16.80;;
54983;SDS011;40884;53.562;9.940;2022-10-31T01:41:34;26.93;;;16.13;;
54983;SDS011;40884;53.562;9.940;2022-10-31T01:42:34;20.60;;;15.37;;
54983;SDS011;40884;53.562;9.940;2022-10-31T01:43:48;24.47;;;16.97;;
54983;SDS011;40884;53.562;9.940;2022-10-31T01:44:56;23.97;;;17.50;;
54983;SDS011;40884;53.562;9.940;2022-10-31T01:45:56;21.60;;;16.73;;
54983;SDS011;40884;53.562;9.940;2022-10-31T01:46:58;22.20;;;16.67;;
54983;SDS011;40884;53.562;9.940;2022-10-31T01:47:59;24.17;;;17.33;;
54983;SDS011;40884;53.562;9.940;2022-10-31T01:49:00;24.20;;;18.20;;
54983;SDS011;40884;53.562;9.940;2022-10-31T01:50:03;20.33;;;15.43;;
54983;SDS011;40884;53.562;9.940;2022-10-31T01:51:04;18.77;;;15.13;;
54983;SDS011;40884;53.562;9.940;2022-10-31T01:52:10;24.50;;;16.10;;
54983;SDS011;40884;53.562;9.940;2022-10-31T01:53:11;23.47;;;18.07;;
54983;SDS011;40884;53.562;9.940;2022-10-31T01:54:12;21.07;;;16.57;;
54983;SDS011;40884;53.562;9.940;2022-10-31T01:55:18;21.57;;;16.23;;
54983;SDS011;40884;53.562;9.940;2022-10-31T01:56:20;27.33;;;16.97;;
54983;SDS011;40884;53.562;9.940;2022-10-31T01:57:20;28.27;;;18.83;;
54983;SDS011;40884;53.562;9.940;2022-10-31T01:58:22;22.83;;;17.83;;
54983;SDS011;40884;53.562;9.940;2022-10-31T01:59:23;21.73;;;15.50;;
54983;SDS011;40884;53.562;9.940;2022-10-31T02:00:26;20.47;;;16.40;;
54983;SDS011;40884;53.562;9.940;2022-10-31T02:01:26;24.73;;;16.90;;
54983;SDS011;40884;53.562;9.940;2022-10-31T02:02:27;26.77;;;17.97;;
54983;SDS011;40884;53.562;9.940;2022-10-31T02:03:27;22.33;;;18.37;;
54983;SDS011;40884;53.562;9.940;2022-10-31T02:04:28;24.03;;;16.97;;
54983;SDS011;40884;53.562;9.940;2022-10-31T02:05:29;21.07;;;17.93;;
54983;SDS011;40884;53.562;9.940;2022-10-31T02:06:35;25.77;;;17.83;;
54983;SDS011;40884;53.562;9.940;2022-10-31T02:07:40;25.27;;;17.67;;
54983;SDS011;40884;53.562;9.940;2022-10-31T02:08:42;26.10;;;19.17;;
54983;SDS011;40884;53.562;9.940;2022-10-31T02:09:43;21.87;;;16.50;;
54983;SDS011;40884;53.562;9.940;2022-10-31T02:10:44;25.63;;;18.80;;
54983;SDS011;40884;53.562;9.940;2022-10-31T02:11:45;22.40;;;16.43;;
54983;SDS011;40884;53.562;9.940;2022-10-31T02:12:45;26.03;;;18.73;;
54983;SDS011;40884;53.562;9.940;2022-10-31T02:13:46;30.40;;;19.70;;
54983;SDS011;40884;53.562;9.940;2022-10-31T02:14:47;27.17;;;18.90;;
54983;SDS011;40884;53.562;9.940;2022-10-31T02:15:47;22.00;;;15.77;;
54983;SDS011;40884;53.562;9.940;2022-10-31T02:16:49;25.47;;;18.83;;
54983;SDS011;40884;53.562;9.940;2022-10-31T02:17:49;30.37;;;20.20;;
54983;SDS011;40884;53.562;9.940;2022-10-31T02:18:49;25.07;;;19.17;;
54983;SDS011;40884;53.562;9.940;2022-10-31T02:19:55;22.67;;;18.70;;
54983;SDS011;40884;53.562;9.940;2022-10-31T02:22:19;23.53;;;17.93;;
54983;SDS011;40884;53.562;9.940;2022-10-31T02:23:33;27.57;;;20.50;;
54983;SDS011;40884;53.562;9.940;2022-10-31T02:28:16;29.80;;;21.20;;
54983;SDS011;40884;53.562;9.940;2022-10-31T02:29:40;28.27;;;21.23;;
54983;SDS011;40884;53.562;9.940;2022-10-31T02:31:46;36.63;;;22.23;;
54983;SDS011;40884;53.562;9.940;2022-10-31T02:33:07;28.93;;;21.70;;
54983;SDS011;40884;53.562;9.940;2022-10-31T02:34:16;30.33;;;21.33;;
54983;SDS011;40884;53.562;9.940;2022-10-31T02:36:40;28.33;;;20.87;;
54983;SDS011;40884;53.562;9.940;2022-10-31T02:37:51;28.57;;;21.87;;
54983;SDS011;40884;53.562;9.940;2022-10-31T02:39:04;29.77;;;22.00;;
54983;SDS011;40884;53.562;9.940;2022-10-31T02:41:43;30.27;;;21.97;;
54983;SDS011;40884;53.562;9.940;2022-10-31T02:43:53;28.63;;;22.37;;
54983;SDS011;40884;53.562;9.940;2022-10-31T02:47:13;31.43;;;22.33;;
54983;SDS011;40884;53.562;9.940;2022-10-31T02:48:15;28.33;;;21.57;;
54983;SDS011;40884;53.562;9.940;2022-10-31T02:50:39;28.63;;;22.27;;
54983;SDS011;40884;53.562;9.940;2022-10-31T02:51:40;31.47;;;22.57;;
54983;SDS011;40884;53.562;9.940;2022-10-31T02:52:40;29.73;;;21.53;;
54983;SDS011;40884;53.562;9.940;2022-10-31T02:53:40;30.67;;;22.00;;
54983;SDS011;40884;53.562;9.940;2022-10-31T02:54:43;28.13;;;22.00;;
54983;SDS011;40884;53.562;9.940;2022-10-31T02:55:46;29.20;;;22.50;;
54983;SDS011;40884;53.562;9.940;2022-10-31T02:56:47;30.00;;;22.20;;
54983;SDS011;40884;53.562;9.940;2022-10-31T02:57:49;34.67;;;23.07;;
54983;SDS011;40884;53.562;9.940;2022-10-31T02:58:50;31.50;;;23.17;;
54983;SDS011;40884;53.562;9.940;2022-10-31T02:59:57;28.37;;;22.77;;
54983;SDS011;40884;53.562;9.940;2022-10-31T03:03:07;31.37;;;23.33;;
54983;SDS011;40884;53.562;9.940;2022-10-31T03:06:26;29.77;;;22.70;;
54983;SDS011;40884;53.562;9.940;2022-10-31T03:07:41;34.77;;;22.57;;
54983;SDS011;40884;53.562;9.940;2022-10-31T03:08:54;31.33;;;22.37;;
54983;SDS011;40884;53.562;9.940;2022-10-31T03:11:05;30.37;;;22.43;;
54983;SDS011;40884;53.562;9.940;2022-10-31T03:12:25;29.33;;;21.27;;
54983;SDS011;40884;53.562;9.940;2022-10-31T03:13:33;28.80;;;21.73;;
54983;SDS011;40884;53.562;9.940;2022-10-31T03:14:41;33.57;;;22.47;;
54983;SDS011;40884;53.562;9.940;2022-10-31T03:15:43;30.70;;;22.57;;
54983;SDS011;40884;53.562;9.940;2022-10-31T03:16:47;32.97;;;23.30;;
54983;SDS011;40884;53.562;9.940;2022-10-31T03:18:59;31.43;;;22.53;;
54983;SDS011;40884;53.562;9.940;2022-10-31T03:20:02;28.60;;;21.60;;
54983;SDS011;40884;53.562;9.940;2022-10-31T03:21:07;31.80;;;22.73;;
54983;SDS011;40884;53.562;9.940;2022-10-31T03:22:22;34.27;;;22.27;;
54983;SDS011;40884;53.562;9.940;2022-10-31T03:23:23;33.20;;;23.07;;
54983;SDS011;40884;53.562;9.940;2022-10-31T03:24:25;31.50;;;22.03;;
54983;SDS011;40884;53.562;9.940;2022-10-31T03:25:27;32.40;;;22.20;;
54983;SDS011;40884;53.562;9.940;2022-10-31T03:26:30;29.70;;;22.30;;
54983;SDS011;40884;53.562;9.940;2022-10-31T03:27:32;32.43;;;22.83;;
54983;SDS011;40884;53.562;9.940;2022-10-31T03:28:35;29.77;;;22.90;;
54983;SDS011;40884;53.562;9.940;2022-10-31T03:29:38;32.03;;;22.13;;
54983;SDS011;40884;53.562;9.940;2022-10-31T03:30:40;32.93;;;22.77;;
54983;SDS011;40884;53.562;9.940;2022-10-31T03:31:46;27.87;;;22.07;;
54983;SDS011;40884;53.562;9.940;2022-10-31T03:32:48;31.57;;;23.43;;
54983;SDS011;40884;53.562;9.940;2022-10-31T03:33:50;32.40;;;23.33;;
54983;SDS011;40884;53.562;9.940;2022-10-31T03:34:51;36.33;;;23.23;;
54983;SDS011;40884;53.562;9.940;2022-10-31T03:35:54;32.60;;;23.43;;
54983;SDS011;40884;53.562;9.940;2022-10-31T03:36:56;34.03;;;22.97;;
54983;SDS011;40884;53.562;9.940;2022-10-31T03:37:57;30.83;;;22.50;;
54983;SDS011;40884;53.562;9.940;2022-10-31T03:38:59;30.37;;;23.80;;
54983;SDS011;40884;53.562;9.940;2022-10-31T03:40:02;30.13;;;22.60;;
54983;SDS011;40884;53.562;9.940;2022-10-31T03:41:05;33.93;;;22.73;;
54983;SDS011;40884;53.562;9.940;2022-10-31T03:42:17;29.43;;;23.67;;
54983;SDS011;40884;53.562;9.940;2022-10-31T03:43:19;32.73;;;22.87;;
54983;SDS011;40884;53.562;9.940;2022-10-31T03:44:22;32.83;;;22.73;;
54983;SDS011;40884;53.562;9.940;2022-10-31T03:45:31;35.57;;;22.77;;
54983;SDS011;40884;53.562;9.940;2022-10-31T03:46:32;35.53;;;24.30;;
54983;SDS011;40884;53.562;9.940;2022-10-31T03:47:33;32.80;;;23.03;;
54983;SDS011;40884;53.562;9.940;2022-10-31T03:48:34;32.47;;;22.87;;
54983;SDS011;40884;53.562;9.940;2022-10-31T03:49:36;33.50;;;23.50;;
54983;SDS011;40884;53.562;9.940;2022-10-31T03:50:44;34.67;;;23.70;;
54983;SDS011;40884;53.562;9.940;2022-10-31T03:51:57;30.23;;;23.07;;
54983;SDS011;40884;53.562;9.940;2022-10-31T03:53:02;35.57;;;24.00;;
54983;SDS011;40884;53.562;9.940;2022-10-31T03:54:09;32.47;;;23.10;;
54983;SDS011;40884;53.562;9.940;2022-10-31T03:55:24;30.07;;;22.93;;
54983;SDS011;40884;53.562;9.940;2022-10-31T03:56:33;32.93;;;23.07;;
54983;SDS011;40884;53.562;9.940;2022-10-31T03:57:37;33.17;;;23.30;;
54983;SDS011;40884;53.562;9.940;2022-10-31T03:58:49;33.17;;;24.47;;
54983;SDS011;40884;53.562;9.940;2022-10-31T03:59:59;35.93;;;24.53;;
54983;SDS011;40884;53.562;9.940;2022-10-31T04:01:00;34.60;;;23.83;;
54983;SDS011;40884;53.562;9.940;2022-10-31T04:02:08;34.83;;;24.03;;
54983;SDS011;40884;53.562;9.940;2022-10-31T04:04:42;32.70;;;22.53;;
54983;SDS011;40884;53.562;9.940;2022-10-31T04:05:43;34.67;;;24.33;;
54983;SDS011;40884;53.562;9.940;2022-10-31T04:06:44;36.53;;;24.33;;
54983;SDS011;40884;53.562;9.940;2022-10-31T04:07:46;31.70;;;23.53;;
54983;SDS011;40884;53.562;9.940;2022-10-31T04:08:48;33.90;;;24.40;;
54983;SDS011;40884;53.562;9.940;2022-10-31T04:09:51;34.57;;;23.83;;
54983;SDS011;40884;53.562;9.940;2022-10-31T04:10:54;34.90;;;25.53;;
54983;SDS011;40884;53.562;9.940;2022-10-31T04:11:56;36.50;;;25.57;;
54983;SDS011;40884;53.562;9.940;2022-10-31T04:13:22;41.17;;;25.80;;
54983;SDS011;40884;53.562;9.940;2022-10-31T04:14:31;35.47;;;25.23;;
54983;SDS011;40884;53.562;9.940;2022-10-31T04:15:33;37.90;;;26.97;;
54983;SDS011;40884;53.562;9.940;2022-10-31T04:16:33;45.77;;;27.80;;
54983;SDS011;40884;53.562;9.940;2022-10-31T04:17:37;39.33;;;27.27;;
54983;SDS011;40884;53.562;9.940;2022-10-31T04:18:38;40.93;;;27.00;;
54983;SDS011;40884;53.562;9.940;2022-10-31T04:19:38;40.63;;;28.87;;
54983;SDS011;40884;53.562;9.940;2022-10-31T04:20:40;40.60;;;29.50;;
54983;SDS011;40884;53.562;9.940;2022-10-31T04:21:41;42.37;;;27.87;;
54983;SDS011;40884;53.562;9.940;2022-10-31T04:22:41;43.83;;;28.63;;
54983;SDS011;40884;53.562;9.940;2022-10-31T04:23:42;43.80;;;28.73;;
54983;SDS011;40884;53.562;9.940;2022-10-31T04:24:49;45.07;;;28.47;;
54983;SDS011;40884;53.562;9.940;2022-10-31T04:25:51;39.87;;;28.23;;
54983;SDS011;40884;53.562;9.940;2022-10-31T04:26:51;38.57;;;26.60;;
54983;SDS011;40884;53.562;9.940;2022-10-31T04:27:54;36.67;;;26.80;;
54983;SDS011;40884;53.562;9.940;2022-10-31T04:28:56;40.07;;;27.80;;
54983;SDS011;40884;53.562;9.940;2022-10-31T04:29:56;42.93;;;27.73;;
54983;SDS011;40884;53.562;9.940;2022-10-31T04:30:57;44.37;;;28.77;;
54983;SDS011;40884;53.562;9.940;2022-10-31T04:31:57;38.10;;;28.10;;
54983;SDS011;40884;53.562;9.940;2022-10-31T04:32:57;40.13;;;28.80;;
54983;SDS011;40884;53.562;9.940;2022-10-31T04:33:57;39.00;;;28.63;;
54983;SDS011;40884;53.562;9.940;2022-10-31T04:34:57;44.57;;;27.77;;
54983;SDS011;40884;53.562;9.940;2022-10-31T04:35:58;42.10;;;28.37;;
54983;SDS011;40884;53.562;9.940;2022-10-31T04:36:58;42.00;;;29.47;;
54983;SDS011;40884;53.562;9.940;2022-10-31T04:37:58;47.63;;;31.20;;
54983;SDS011;40884;53.562;9.940;2022-10-31T04:38:58;43.60;;;29.07;;
54983;SDS011;40884;53.562;9.940;2022-10-31T04:40:11;44.43;;;29.17;;
54983;SDS011;40884;53.562;9.940;2022-10-31T04:41:29;41.37;;;26.83;;
54983;SDS011;40884;53.562;9.940;2022-10-31T04:42:34;44.40;;;28.57;;
54983;SDS011;40884;53.562;9.940;2022-10-31T04:43:37;39.63;;;26.70;;
54983;SDS011;40884;53.562;9.940;2022-10-31T04:44:37;45.17;;;29.00;;
54983;SDS011;40884;53.562;9.940;2022-10-31T04:45:37;44.63;;;30.40;;
54983;SDS011;40884;53.562;9.940;2022-10-31T04:46:38;45.03;;;29.63;;
54983;SDS011;40884;53.562;9.940;2022-10-31T04:47:38;47.53;;;30.20;;
54983;SDS011;40884;53.562;9.940;2022-10-31T04:48:39;46.77;;;30.47;;
54983;SDS011;40884;53.562;9.940;2022-10-31T04:49:41;45.90;;;29.33;;
54983;SDS011;40884;53.562;9.940;2022-10-31T04:50:42;43.90;;;29.73;;
54983;SDS011;40884;53.562;9.940;2022-10-31T04:51:42;45.73;;;30.13;;
54983;SDS011;40884;53.562;9.940;2022-10-31T04:52:44;47.43;;;32.10;;
54983;SDS011;40884;53.562;9.940;2022-10-31T04:53:46;47.80;;;30.57;;
54983;SDS011;40884;53.562;9.940;2022-10-31T04:55:16;47.30;;;31.13;;
54983;SDS011;40884;53.562;9.940;2022-10-31T04:56:19;53.10;;;32.27;;
54983;SDS011;40884;53.562;9.940;2022-10-31T04:57:21;54.13;;;32.30;;
54983;SDS011;40884;53.562;9.940;2022-10-31T04:58:22;50.17;;;33.60;;
54983;SDS011;40884;53.562;9.940;2022-10-31T04:59:23;52.90;;;33.30;;
54983;SDS011;40884;53.562;9.940;2022-10-31T05:00:27;49.30;;;33.03;;
54983;SDS011;40884;53.562;9.940;2022-10-31T05:01:29;51.77;;;32.07;;
54983;SDS011;40884;53.562;9.940;2022-10-31T05:02:29;54.10;;;32.70;;
54983;SDS011;40884;53.562;9.940;2022-10-31T05:03:31;56.07;;;34.93;;
54983;SDS011;40884;53.562;9.940;2022-10-31T05:04:31;52.03;;;34.70;;
54983;SDS011;40884;53.562;9.940;2022-10-31T05:05:31;52.00;;;33.30;;
54983;SDS011;40884;53.562;9.940;2022-10-31T05:06:34;60.67;;;34.57;;
54983;SDS011;40884;53.562;9.940;2022-10-31T05:07:37;49.67;;;33.10;;
54983;SDS011;40884;53.562;9.940;2022-10-31T05:08:38;49.67;;;33.20;;
54983;SDS011;40884;53.562;9.940;2022-10-31T05:09:40;48.47;;;32.70;;
54983;SDS011;40884;53.562;9.940;2022-10-31T05:10:40;54.67;;;34.17;;
54983;SDS011;40884;53.562;9.940;2022-10-31T05:11:41;49.43;;;32.53;;
54983;SDS011;40884;53.562;9.940;2022-10-31T05:12:56;49.40;;;30.60;;
54983;SDS011;40884;53.562;9.940;2022-10-31T05:14:19;44.60;;;29.97;;
54983;SDS011;40884;53.562;9.940;2022-10-31T05:15:57;50.07;;;31.17;;
54983;SDS011;40884;53.562;9.940;2022-10-31T05:17:03;54.83;;;31.80;;
54983;SDS011;40884;53.562;9.940;2022-10-31T05:18:22;55.53;;;33.60;;
54983;SDS011;40884;53.562;9.940;2022-10-31T05:19:41;54.57;;;32.27;;
54983;SDS011;40884;53.562;9.940;2022-10-31T05:21:16;49.93;;;30.53;;
54983;SDS011;40884;53.562;9.940;2022-10-31T05:22:28;46.33;;;29.57;;
54983;SDS011;40884;53.562;9.940;2022-10-31T05:23:28;43.87;;;29.63;;
54983;SDS011;40884;53.562;9.940;2022-10-31T05:24:28;45.53;;;30.57;;
54983;SDS011;40884;53.562;9.940;2022-10-31T05:25:28;44.87;;;30.70;;
54983;SDS011;40884;53.562;9.940;2022-10-31T05:26:28;41.37;;;28.73;;
54983;SDS011;40884;53.562;9.940;2022-10-31T05:27:29;42.40;;;28.27;;
54983;SDS011;40884;53.562;9.940;2022-10-31T05:28:29;40.90;;;28.43;;
54983;SDS011;40884;53.562;9.940;2022-10-31T05:29:29;41.00;;;28.50;;
54983;SDS011;40884;53.562;9.940;2022-10-31T05:30:30;43.67;;;27.67;;
54983;SDS011;40884;53.562;9.940;2022-10-31T05:31:31;39.77;;;27.73;;
54983;SDS011;40884;53.562;9.940;2022-10-31T05:32:42;45.87;;;28.13;;
54983;SDS011;40884;53.562;9.940;2022-10-31T05:34:11;47.87;;;29.80;;
54983;SDS011;40884;53.562;9.940;2022-10-31T05:35:31;42.00;;;29.17;;
54983;SDS011;40884;53.562;9.940;2022-10-31T05:36:50;44.87;;;29.23;;
54983;SDS011;40884;53.562;9.940;2022-10-31T05:37:52;45.53;;;29.87;;
54983;SDS011;40884;53.562;9.940;2022-10-31T05:38:53;45.10;;;28.73;;
54983;SDS011;40884;53.562;9.940;2022-10-31T05:39:57;42.93;;;28.67;;
54983;SDS011;40884;53.562;9.940;2022-10-31T05:40:57;41.33;;;28.63;;
54983;SDS011;40884;53.562;9.940;2022-10-31T05:41:58;49.40;;;31.00;;
54983;SDS011;40884;53.562;9.940;2022-10-31T05:43:01;46.63;;;31.27;;
54983;SDS011;40884;53.562;9.940;2022-10-31T05:44:01;49.23;;;29.83;;
54983;SDS011;40884;53.562;9.940;2022-10-31T05:45:04;42.33;;;29.37;;
54983;SDS011;40884;53.562;9.940;2022-10-31T05:46:16;47.63;;;29.23;;
54983;SDS011;40884;53.562;9.940;2022-10-31T05:47:34;46.10;;;30.90;;
54983;SDS011;40884;53.562;9.940;2022-10-31T05:48:53;43.37;;;29.00;;
54983;SDS011;40884;53.562;9.940;2022-10-31T05:50:12;51.30;;;32.30;;
54983;SDS011;40884;53.562;9.940;2022-10-31T05:51:26;44.63;;;30.67;;
54983;SDS011;40884;53.562;9.940;2022-10-31T05:52:26;45.00;;;29.63;;
54983;SDS011;40884;53.562;9.940;2022-10-31T05:53:33;45.10;;;30.37;;
54983;SDS011;40884;53.562;9.940;2022-10-31T05:54:34;46.53;;;31.37;;
54983;SDS011;40884;53.562;9.940;2022-10-31T05:55:34;46.10;;;30.10;;
54983;SDS011;40884;53.562;9.940;2022-10-31T05:56:54;48.13;;;31.00;;
54983;SDS011;40884;53.562;9.940;2022-10-31T05:57:55;52.50;;;31.63;;
54983;SDS011;40884;53.562;9.940;2022-10-31T05:58:56;46.37;;;30.07;;
54983;SDS011;40884;53.562;9.940;2022-10-31T05:59:56;44.50;;;30.13;;
54983;SDS011;40884;53.562;9.940;2022-10-31T06:00:57;50.00;;;31.80;;
54983;SDS011;40884;53.562;9.940;2022-10-31T06:01:57;51.23;;;32.23;;
54983;SDS011;40884;53.562;9.940;2022-10-31T06:03:09;55.93;;;31.70;;
54983;SDS011;40884;53.562;9.940;2022-10-31T06:04:25;58.23;;;33.03;;
54983;SDS011;40884;53.562;9.940;2022-10-31T06:05:26;52.63;;;31.73;;
54983;SDS011;40884;53.562;9.940;2022-10-31T06:06:26;50.67;;;31.07;;
54983;SDS011;40884;53.562;9.940;2022-10-31T06:07:26;51.93;;;30.40;;
54983;SDS011;40884;53.562;9.940;2022-10-31T06:08:27;49.40;;;31.83;;
54983;SDS011;40884;53.562;9.940;2022-10-31T06:09:28;51.70;;;32.83;;
54983;SDS011;40884;53.562;9.940;2022-10-31T06:10:29;53.47;;;32.67;;
54983;SDS011;40884;53.562;9.940;2022-10-31T06:11:29;47.27;;;30.30;;
54983;SDS011;40884;53.562;9.940;2022-10-31T06:12:35;52.77;;;33.40;;
54983;SDS011;40884;53.562;9.940;2022-10-31T06:13:48;49.07;;;31.87;;
54983;SDS011;40884;53.562;9.940;2022-10-31T06:15:04;53.17;;;32.57;;
54983;SDS011;40884;53.562;9.940;2022-10-31T06:16:04;54.77;;;31.80;;
54983;SDS011;40884;53.562;9.940;2022-10-31T06:17:09;52.40;;;32.83;;
54983;SDS011;40884;53.562;9.940;2022-10-31T06:18:21;52.47;;;32.83;;
54983;SDS011;40884;53.562;9.940;2022-10-31T06:19:24;51.40;;;32.63;;
54983;SDS011;40884;53.562;9.940;2022-10-31T06:20:24;53.47;;;30.87;;
54983;SDS011;40884;53.562;9.940;2022-10-31T06:21:31;47.63;;;30.70;;
54983;SDS011;40884;53.562;9.940;2022-10-31T06:22:32;47.53;;;30.97;;
54983;SDS011;40884;53.562;9.940;2022-10-31T06:23:32;50.03;;;31.30;;
54983;SDS011;40884;53.562;9.940;2022-10-31T06:24:52;56.90;;;31.60;;
54983;SDS011;40884;53.562;9.940;2022-10-31T06:26:02;48.93;;;31.00;;
54983;SDS011;40884;53.562;9.940;2022-10-31T06:27:02;54.00;;;31.37;;
54983;SDS011;40884;53.562;9.940;2022-10-31T06:28:03;51.50;;;31.73;;
54983;SDS011;40884;53.562;9.940;2022-10-31T06:29:12;48.83;;;29.73;;
54983;SDS011;40884;53.562;9.940;2022-10-31T06:30:29;49.73;;;31.80;;
54983;SDS011;40884;53.562;9.940;2022-10-31T06:31:29;50.30;;;30.77;;
54983;SDS011;40884;53.562;9.940;2022-10-31T06:32:29;45.87;;;29.63;;
54983;SDS011;40884;53.562;9.940;2022-10-31T06:33:29;47.37;;;30.67;;